AirNav   Air Wisconsin Up To $57,000 Bonus
 
 1386 users online  

03WA Spangle Field Airport
Spangle, Washington, USA

GOING TO SPANGLE?


FAA INFORMATION EFFECTIVE 07 NOVEMBER 2019

Location

FAA Identifier: 03WA
Lat/Long: 47-24-29.6170N 117-22-18.7090W
47-24.493617N 117-22.311817W
47.4082269,-117.3718636
(estimated)
Elevation: 2440 ft. / 744 m (estimated)
Variation: 19E (1985)
From city: 2 miles SE of SPANGLE, WA
Time zone: UTC -8 (UTC -7 during Daylight Saving Time)
Zip code: 99031

Airport Operations

Airport use: Private use. Permission required prior to landing
Activation date: 07/1971
Control tower: no
ARTCC: SEATTLE CENTER
FSS: SEATTLE FLIGHT SERVICE STATION
Attendance: UNATNDD
Segmented circle: no

Airport Communications

WX ASOS at GEG (14 nm NW): PHONE 509-624-4406
WX ASOS at SFF (17 nm N): 120.55 (509-535-3290)

Nearby radio navigation aids

VOR radial/distance  VOR name  Freq  Var
GEGr111/14.0SPOKANE VORTAC115.5021E
COEr206/31.3COEUR D'ALENE VOR/DME108.8019E

 
NDB name  Hdg/Dist  Freq  Var  ID
DEER PARK160/33.636516EDPY -.. .--. -.--

Airport Services

Airframe service: NONE
Powerplant service: NONE

Runway Information

Runway 18/36

Dimensions: 2800 x 60 ft. / 853 x 18 m
Surface: gravel
RUNWAY 18  RUNWAY 36
Traffic pattern: leftleft

Airport Ownership and Management from official FAA records

Ownership: Privately-owned
Owner: UPPER COLUMBIA ACADEMY
SPANGLE, WA 99031
Phone 509-245-3615
Manager: PAMELA BACKMAN, VP/FINANCE
UPPER COLUMBIA ACDMY
SPANGLE, WA 99031
Phone 509-245-3615

Additional Remarks

FOR CD CTC SPOKANE APCH AT 509-742-2522

Instrument Procedures

There are no published instrument procedures at 03WA.

Some nearby airports with instrument procedures:

KGEG - Spokane International Airport (14 nm NW)
KSFF - Felts Field Airport (17 nm N)
KSKA - Fairchild Air Force Base (17 nm NW)
KCOE - Coeur d'Alene Airport - Pappy Boyington Field (31 nm NE)
KDEW - Deer Park Airport (34 nm N)
 
Loc | Ops | Rwys | IFR | FBO | Links
Com | Nav | Svcs | Stats | Notes
Area around 03WA (Spangle Field Airport)
 
Road maps at: MapQuest Bing Google
 
Aerial photo
No photo
 
Sectional chart

 
Airport distance calculator
Flying to Spangle Field Airport? Find the distance to fly.

From to 03WA

Sunrise and sunset
Times for 18-Nov-2019
 Local
(UTC-8)
 Zulu
(UTC)
Morning civil twilight06:2614:26
Sunrise07:0015:00
Sunset16:1000:10
Evening civil twilight16:4400:44

Current date and time
Zulu (UTC)  18-Nov-2019 17:31:08
Local (UTC-8)  18-Nov-2019 09:31:08
 
METAR
KGEG 
14nm NW 
181653Z 00000KT 1/4SM R21/1400V3500FT FG VV003 06/06 A3004 RMK AO2 SLP182 T00610056 $
KSFF 
17nm N 
181710Z 00000KT 6SM BR OVC015 07/06 A3005 RMK AO2 T00720056
KSKA 
17nm NW 
181718Z 07003KT 3/8SM R23/2200V3500FT FG VV004 07/07 A3004 RMK AO2A SLP186 $
TAF
KGEG 
14nm NW 
181139Z 1812/1912 18005KT 1/2SM FG OVC002 FM181700 10005KT 3SM BR OVC005 FM181900 09006KT P6SM BKN015 OVC150 FM190000 09005KT P6SM -SHRA BKN050 OVC100 FM190700 19007KT 4SM -RA BR OVC008
KSFF 
17nm N 
181139Z 1812/1912 00000KT P6SM OVC006 FM181400 19003KT 5SM BR OVC005 FM181600 VRB03KT P6SM OVC008 FM181900 05003KT P6SM OVC015 FM182100 09005KT P6SM SCT020 OVC100 FM190100 VRB03KT P6SM -SHRA OVC050 FM190700 21005KT 3SM -RA BR SCT006 OVC012
KSKA 
17nm NW 
181100Z 1811/1917 15005KT 0400 FG OVC001 QNH3008INS BECMG 1816/1818 10004KT 9999 NSW BKN005 OVC100 QNH2999INS BECMG 1820/1821 09005KT 9999 SCT005 BKN100 QNH2983INS BECMG 1901/1902 18005KT 8000 -RA BR BKN005 OVC035 620508 QNH2963INS TX08/1822Z TN04/1812Z
NOTAMs
Click for the latest NOTAMs
NOTAMs are issued by the DoD/FAA and will open in a separate window not controlled by AirNav.

 

 
 

Would you like to see your business listed on this page?

 If your business provides an interesting product or service to pilots, flight crews, aircraft, or users of the Spangle Field Airport, you should consider listing it here.  To start the listing process, click on the button below
 
Add a business
 

Other Pages about Spangle Field Airport

Update a link
 
Copyright © AirNav, LLC. All rights reserved. Privacy Policy  Contact